createdAt,value
2023-03-15T00:00:17.454Z,9.13
2023-03-15T00:02:49.309Z,12.27
2023-03-15T00:05:17.510Z,9.00
2023-03-15T00:07:47.751Z,9.97
2023-03-15T00:10:20.487Z,9.67
2023-03-15T00:12:48.210Z,10.87
2023-03-15T00:15:16.361Z,14.63
2023-03-15T00:17:47.310Z,8.47
2023-03-15T00:20:20.747Z,8.60
2023-03-15T00:22:48.679Z,11.00
2023-03-15T00:25:22.353Z,12.20
2023-03-15T00:27:50.264Z,14.83
2023-03-15T00:30:20.732Z,12.13
2023-03-15T00:32:48.762Z,15.90
2023-03-15T00:35:18.342Z,10.47
2023-03-15T00:37:47.506Z,9.70
2023-03-15T00:40:20.260Z,12.50
2023-03-15T00:42:50.156Z,13.57
2023-03-15T00:45:19.567Z,12.23
2023-03-15T00:47:50.257Z,11.60
2023-03-15T00:50:18.142Z,11.50
2023-03-15T00:52:46.528Z,11.33
2023-03-15T00:55:18.032Z,9.73
2023-03-15T00:57:47.151Z,13.50
2023-03-15T01:00:20.857Z,13.43
2023-03-15T01:02:49.203Z,12.37
2023-03-15T01:05:17.277Z,12.13
2023-03-15T01:07:46.216Z,9.03
2023-03-15T01:10:15.640Z,11.00
2023-03-15T01:12:45.150Z,11.43
2023-03-15T01:15:15.110Z,8.53
2023-03-15T01:17:43.662Z,10.87
2023-03-15T01:20:13.622Z,12.70
2023-03-15T01:22:44.810Z,12.93
2023-03-15T01:25:16.077Z,10.73
2023-03-15T01:27:48.992Z,7.37
2023-03-15T01:30:18.971Z,9.50
2023-03-15T01:32:46.933Z,11.60
2023-03-15T01:35:16.082Z,15.67
2023-03-15T01:37:43.951Z,11.63
2023-03-15T01:40:14.446Z,12.23
2023-03-15T01:42:54.673Z,13.17
2023-03-15T01:46:05.245Z,17.77
2023-03-15T01:48:39.642Z,9.90
2023-03-15T01:51:15.813Z,13.00
2023-03-15T01:53:46.976Z,11.33
2023-03-15T01:56:15.338Z,12.67
2023-03-15T01:58:45.873Z,9.37
2023-03-15T02:01:15.681Z,10.27
2023-03-15T02:03:51.314Z,5.03
2023-03-15T02:06:20.610Z,4.60
2023-03-15T02:08:57.905Z,5.07
2023-03-15T02:11:29.144Z,5.03
2023-03-15T02:14:00.404Z,4.80
2023-03-15T02:16:30.747Z,4.43
2023-03-15T02:19:04.253Z,4.03
2023-03-15T02:21:43.554Z,3.87
2023-03-15T02:24:24.839Z,3.67
2023-03-15T02:26:55.506Z,5.83
2023-03-15T02:29:26.878Z,5.67
2023-03-15T02:31:56.329Z,5.80
2023-03-15T02:34:26.558Z,4.87
2023-03-15T02:36:55.344Z,6.80
2023-03-15T02:39:24.582Z,4.83
2023-03-15T02:41:55.063Z,5.17
2023-03-15T02:44:28.998Z,4.23
2023-03-15T02:47:02.076Z,4.60
2023-03-15T02:49:36.329Z,6.83
2023-03-15T02:52:04.675Z,4.73
2023-03-15T02:54:34.354Z,5.57
2023-03-15T02:57:02.767Z,6.83
2023-03-15T02:59:32.718Z,3.90
2023-03-15T03:02:00.716Z,3.93
2023-03-15T03:04:28.915Z,3.37
2023-03-15T03:06:56.821Z,3.90
2023-03-15T03:09:30.993Z,2.57
2023-03-15T03:11:58.869Z,3.33
2023-03-15T03:14:26.954Z,2.80
2023-03-15T03:16:56.134Z,3.27
2023-03-15T03:19:26.653Z,3.87
2023-03-15T03:21:55.276Z,2.63
2023-03-15T03:24:25.799Z,2.17
2023-03-15T03:26:57.919Z,2.13
2023-03-15T03:29:28.307Z,3.53
2023-03-15T03:32:00.461Z,3.03
2023-03-15T03:34:28.287Z,3.37
2023-03-15T03:36:57.086Z,3.20
2023-03-15T03:39:43.037Z,5.87
2023-03-15T03:42:11.053Z,3.17
2023-03-15T03:44:38.912Z,3.20
2023-03-15T03:47:08.758Z,3.47
2023-03-15T03:49:36.723Z,3.40
2023-03-15T03:52:04.716Z,3.93
2023-03-15T03:54:33.093Z,3.40
2023-03-15T03:57:00.844Z,4.23
2023-03-15T03:59:33.199Z,2.87
2023-03-15T04:02:05.882Z,5.53
2023-03-15T04:04:36.801Z,4.13
2023-03-15T04:07:06.340Z,4.33
2023-03-15T04:09:37.992Z,4.17
2023-03-15T04:12:07.300Z,5.00
2023-03-15T04:14:36.858Z,4.67
2023-03-15T04:17:08.681Z,4.80
2023-03-15T04:19:38.177Z,3.77
2023-03-15T04:22:07.792Z,5.03
2023-03-15T04:24:53.555Z,3.73
2023-03-15T04:27:58.957Z,5.97
2023-03-15T04:30:46.523Z,5.27
2023-03-15T04:33:43.788Z,4.97
2023-03-15T04:36:37.109Z,4.60
2023-03-15T04:39:16.737Z,3.43
2023-03-15T04:41:51.803Z,3.23
2023-03-15T04:44:26.697Z,3.17
2023-03-15T04:47:13.066Z,4.23
2023-03-15T04:49:52.888Z,3.30
2023-03-15T04:52:58.279Z,5.20
2023-03-15T04:55:46.382Z,3.90
2023-03-15T04:58:46.636Z,2.83
2023-03-15T05:01:33.101Z,3.30
2023-03-15T05:04:16.759Z,3.00
2023-03-15T05:06:58.220Z,3.10
2023-03-15T05:09:40.016Z,3.10
2023-03-15T05:12:26.604Z,3.33
2023-03-15T05:15:34.087Z,4.00
2023-03-15T05:18:22.998Z,3.83
2023-03-15T05:21:08.695Z,4.33
2023-03-15T05:23:45.495Z,3.90
2023-03-15T05:26:31.581Z,3.90
2023-03-15T05:29:23.185Z,3.73
2023-03-15T05:32:27.614Z,4.07
2023-03-15T05:35:13.884Z,4.13
2023-03-15T05:37:47.428Z,4.33
2023-03-15T05:40:34.032Z,4.13
2023-03-15T05:43:29.074Z,4.37
2023-03-15T05:46:15.248Z,4.57
2023-03-15T05:49:09.324Z,5.33
2023-03-15T05:51:53.947Z,6.93
2023-03-15T05:54:37.042Z,6.27
2023-03-15T05:57:29.347Z,5.40
2023-03-15T06:00:18.765Z,5.23
2023-03-15T06:02:49.874Z,5.97
2023-03-15T06:05:34.836Z,6.80
2023-03-15T06:08:05.326Z,6.63
2023-03-15T06:10:34.819Z,7.20
2023-03-15T06:13:07.639Z,6.67
2023-03-15T06:15:42.072Z,6.83
2023-03-15T06:18:11.447Z,7.00
2023-03-15T06:20:39.743Z,6.27
2023-03-15T06:23:12.857Z,6.73
2023-03-15T06:25:46.898Z,6.77
2023-03-15T06:28:15.293Z,7.47
2023-03-15T06:30:53.761Z,7.67
2023-03-15T06:33:26.762Z,8.43
2023-03-15T06:35:55.252Z,9.50
2023-03-15T06:38:23.064Z,8.47
2023-03-15T06:40:50.943Z,7.67
2023-03-15T06:43:19.744Z,8.37
2023-03-15T06:45:48.288Z,9.47
2023-03-15T06:48:18.545Z,8.10
2023-03-15T06:50:47.892Z,7.40
2023-03-15T06:53:16.818Z,9.10
2023-03-15T06:55:44.976Z,8.07
2023-03-15T06:58:13.375Z,9.10
2023-03-15T07:00:42.283Z,9.03
2023-03-15T07:03:10.277Z,9.87
2023-03-15T07:05:39.496Z,9.30
2023-03-15T07:08:07.633Z,9.80
2023-03-15T07:10:35.400Z,8.60
2023-03-15T07:13:04.366Z,9.47
2023-03-15T07:15:32.176Z,10.70
2023-03-15T07:18:00.431Z,10.27
2023-03-15T07:20:28.166Z,11.27
2023-03-15T07:22:57.835Z,10.87
2023-03-15T07:25:25.966Z,12.00
2023-03-15T07:27:54.646Z,10.93
2023-03-15T07:30:23.442Z,12.20
2023-03-15T07:32:51.281Z,11.67
2023-03-15T07:35:19.102Z,11.13
2023-03-15T07:37:47.066Z,12.20
2023-03-15T07:40:16.434Z,14.20
2023-03-15T07:42:45.649Z,12.10
2023-03-15T07:45:14.354Z,11.97
2023-03-15T07:47:42.193Z,12.63
2023-03-15T07:50:12.845Z,11.93
2023-03-15T07:52:41.187Z,12.40
2023-03-15T07:55:09.911Z,11.57
2023-03-15T08:40:28.009Z,13.77
2023-03-15T08:42:56.894Z,15.47
2023-03-15T08:45:26.300Z,14.13
2023-03-15T08:47:56.923Z,12.60
2023-03-15T08:50:25.632Z,11.17
2023-03-15T08:52:53.824Z,13.33
2023-03-15T08:55:21.856Z,13.40
2023-03-15T08:57:50.945Z,14.03
2023-03-15T09:00:22.693Z,10.03
2023-03-15T09:02:51.889Z,12.53
2023-03-15T09:05:21.091Z,12.03
2023-03-15T09:07:49.274Z,11.40
2023-03-15T09:10:18.376Z,12.70
2023-03-15T09:12:48.333Z,11.60
2023-03-15T09:15:18.687Z,11.00
2023-03-15T09:17:46.535Z,10.80
2023-03-15T09:20:16.835Z,10.87
2023-03-15T09:22:45.806Z,7.83
2023-03-15T09:25:13.633Z,9.27
2023-03-15T09:27:41.457Z,11.93
2023-03-15T09:30:11.005Z,7.53
2023-03-15T09:32:40.209Z,9.30
2023-03-15T09:35:11.440Z,12.37
2023-03-15T09:37:39.150Z,7.47
2023-03-15T09:40:08.367Z,11.53
2023-03-15T09:42:51.925Z,10.30
2023-03-15T09:45:27.880Z,8.40
2023-03-15T09:48:05.284Z,7.10
2023-03-15T09:50:36.969Z,7.80
2023-03-15T09:53:09.537Z,8.40
2023-03-15T09:55:37.371Z,9.20
2023-03-15T09:58:06.489Z,8.93
2023-03-15T10:00:38.636Z,9.93
2023-03-15T10:03:14.187Z,10.80
2023-03-15T10:05:44.342Z,8.47
2023-03-15T10:08:13.875Z,7.37
2023-03-15T10:10:48.104Z,10.77
2023-03-15T10:13:30.815Z,7.93
2023-03-15T10:16:12.274Z,7.43
2023-03-15T10:18:54.001Z,7.63
2023-03-15T10:21:34.892Z,8.10
2023-03-15T10:24:05.630Z,7.60
2023-03-15T10:26:39.998Z,7.60
2023-03-15T10:29:14.920Z,7.37
2023-03-15T10:31:47.220Z,8.50
2023-03-15T10:34:17.197Z,7.33
2023-03-15T10:36:47.183Z,7.97
2023-03-15T10:39:15.360Z,7.03
2023-03-15T10:41:44.910Z,10.47
2023-03-15T10:44:16.305Z,8.70
2023-03-15T10:47:02.996Z,7.83
2023-03-15T10:49:37.498Z,9.37
2023-03-15T10:52:05.856Z,8.23
2023-03-15T10:54:35.947Z,5.30
2023-03-15T10:57:06.232Z,5.30
2023-03-15T10:59:35.877Z,4.27
2023-03-15T11:02:22.458Z,5.07
2023-03-15T11:05:01.031Z,4.23
2023-03-15T11:07:28.793Z,7.00
2023-03-15T11:10:01.457Z,7.00
2023-03-15T11:12:30.972Z,7.40
2023-03-15T11:15:02.782Z,7.73
2023-03-15T11:17:33.571Z,7.37
2023-03-15T11:20:15.855Z,7.37
2023-03-15T11:22:43.773Z,3.93
2023-03-15T11:25:14.409Z,5.77
2023-03-15T11:27:43.348Z,5.40
2023-03-15T11:30:15.670Z,5.40
2023-03-15T11:32:44.968Z,5.33
2023-03-15T11:35:19.799Z,3.80
2023-03-15T11:37:51.713Z,5.37
2023-03-15T11:40:23.119Z,6.07
2023-03-15T11:42:55.921Z,3.80
2023-03-15T11:45:33.253Z,5.93
2023-03-15T11:48:27.544Z,6.77
2023-03-15T11:50:58.438Z,4.33
2023-03-15T11:53:31.304Z,5.27
2023-03-15T11:56:20.323Z,9.97
2023-03-15T11:59:04.065Z,6.03
2023-03-15T12:01:31.936Z,4.57
2023-03-15T12:04:39.366Z,5.97
2023-03-15T12:07:29.114Z,5.00
2023-03-15T12:09:57.647Z,4.87
2023-03-15T12:12:45.604Z,5.57
2023-03-15T12:15:46.976Z,4.47
2023-03-15T12:18:32.016Z,4.90
2023-03-15T12:21:09.678Z,7.37
2023-03-15T12:23:43.578Z,8.13
2023-03-15T12:26:24.336Z,6.00
2023-03-15T12:28:54.581Z,3.60
2023-03-15T12:31:22.511Z,6.25
2023-03-15T12:33:53.396Z,5.53
2023-03-15T12:36:31.841Z,4.40
2023-03-15T12:39:04.352Z,6.28
2023-03-15T12:41:39.107Z,4.60
2023-03-15T12:44:21.829Z,5.23
2023-03-15T12:46:58.613Z,4.72
2023-03-15T12:49:32.768Z,4.75
2023-03-15T12:52:02.711Z,4.65
2023-03-15T12:54:41.383Z,4.40
2023-03-15T12:57:12.148Z,5.45
2023-03-15T12:59:45.810Z,5.97
2023-03-15T13:02:42.626Z,3.03
2023-03-15T13:05:20.981Z,3.88
2023-03-15T13:07:57.737Z,6.70
2023-03-15T13:10:36.127Z,4.07
2023-03-15T13:13:14.355Z,5.82
2023-03-15T13:15:46.025Z,5.20
2023-03-15T13:18:19.394Z,3.80
2023-03-15T13:20:54.771Z,5.13
2023-03-15T13:23:26.857Z,6.93
2023-03-15T13:26:25.239Z,4.45
2023-03-15T13:29:00.742Z,3.53
2023-03-15T13:31:31.656Z,3.35
2023-03-15T13:34:13.445Z,4.13
2023-03-15T13:36:45.552Z,5.18
2023-03-15T13:39:20.564Z,4.65
2023-03-15T13:41:50.299Z,4.47
2023-03-15T13:44:21.367Z,4.60
2023-03-15T13:46:50.902Z,6.18
2023-03-15T13:49:20.647Z,4.70
2023-03-15T13:51:50.967Z,4.82
2023-03-15T13:54:21.723Z,5.32
2023-03-15T13:57:03.569Z,5.70
2023-03-15T13:59:36.139Z,3.25
2023-03-15T14:02:14.654Z,2.40
2023-03-15T14:04:42.685Z,4.18
2023-03-15T14:07:25.821Z,2.95
2023-03-15T14:10:10.039Z,3.67
2023-03-15T14:12:39.272Z,3.35
2023-03-15T14:15:16.419Z,5.10
2023-03-15T14:17:54.406Z,4.30
2023-03-15T14:20:29.830Z,4.55
2023-03-15T14:23:03.116Z,3.80
2023-03-15T14:25:36.027Z,3.72
2023-03-15T14:28:06.703Z,4.22
2023-03-15T14:30:37.109Z,3.83
2023-03-15T14:33:07.544Z,5.88
2023-03-15T14:35:43.412Z,3.47
2023-03-15T14:38:18.966Z,4.80
2023-03-15T14:40:47.208Z,4.53
2023-03-15T14:43:16.604Z,3.90
2023-03-15T14:45:48.154Z,5.20
2023-03-15T14:48:22.905Z,2.05
2023-03-15T14:50:50.815Z,5.18
2023-03-15T14:53:21.210Z,4.70
2023-03-15T14:55:48.993Z,3.95
2023-03-15T14:58:20.086Z,3.90
2023-03-15T15:00:50.475Z,3.70
2023-03-15T15:03:22.112Z,4.25
2023-03-15T15:05:50.225Z,4.15
2023-03-15T15:08:19.809Z,3.47
2023-03-15T15:10:49.028Z,3.80
2023-03-15T15:13:20.810Z,3.28
2023-03-15T15:15:55.612Z,4.30
2023-03-15T15:18:25.908Z,3.73
2023-03-15T15:20:55.847Z,4.00
2023-03-15T15:23:27.055Z,4.73
2023-03-15T15:25:58.347Z,3.03
2023-03-15T15:28:35.285Z,4.32
2023-03-15T15:31:05.130Z,3.95
2023-03-15T15:33:33.972Z,4.32
2023-03-15T15:36:02.356Z,5.70
2023-03-15T15:38:38.087Z,2.30
2023-03-15T15:41:06.436Z,3.87
2023-03-15T15:43:35.561Z,5.50
2023-03-15T15:46:03.372Z,3.95
2023-03-15T15:48:31.155Z,3.60
2023-03-15T15:50:58.976Z,3.43
2023-03-15T15:53:28.263Z,2.93
2023-03-15T15:55:56.160Z,3.80
2023-03-15T15:58:23.972Z,4.05
2023-03-15T16:00:53.103Z,3.40
2023-03-15T16:03:20.898Z,4.83
2023-03-15T16:05:48.654Z,5.23
2023-03-15T16:08:22.943Z,4.80
2023-03-15T16:10:51.007Z,4.77
2023-03-15T16:13:19.024Z,3.73
2023-03-15T16:15:46.804Z,5.55
2023-03-15T16:18:15.922Z,4.70
2023-03-15T16:20:44.378Z,3.50
2023-03-15T16:23:17.996Z,3.87
2023-03-15T16:25:51.637Z,6.47
2023-03-15T16:28:19.902Z,3.50
2023-03-15T16:30:47.861Z,2.00
2023-03-15T16:33:18.754Z,3.13
2023-03-15T16:35:50.030Z,4.57
2023-03-15T16:38:24.178Z,2.40
2023-03-15T16:40:53.292Z,3.60
2023-03-15T16:43:21.145Z,4.47
2023-03-15T16:45:49.070Z,3.77
2023-03-15T16:48:18.245Z,5.27
2023-03-15T16:50:46.040Z,2.63
2023-03-15T16:53:14.640Z,4.27
2023-03-15T16:55:42.447Z,3.75
2023-03-15T16:58:19.035Z,4.43
2023-03-15T17:00:48.666Z,1.63
2023-03-15T17:03:18.203Z,5.07
2023-03-15T17:05:48.053Z,3.47
2023-03-15T17:08:19.649Z,2.63
2023-03-15T17:10:47.814Z,3.07
2023-03-15T17:13:18.184Z,2.73
2023-03-15T17:15:46.007Z,7.27
2023-03-15T17:18:18.944Z,6.40
2023-03-15T17:20:48.481Z,8.63
2023-03-15T17:23:17.040Z,5.93
2023-03-15T17:25:44.877Z,10.83
2023-03-15T17:28:12.633Z,12.20
2023-03-15T17:30:40.986Z,10.03
2023-03-15T17:33:09.129Z,8.07
2023-03-15T17:35:40.800Z,5.37
2023-03-15T17:38:16.109Z,8.43
2023-03-15T17:40:44.073Z,3.87
2023-03-15T17:43:13.688Z,5.37
2023-03-15T17:45:41.819Z,5.70
2023-03-15T17:48:10.160Z,7.17
2023-03-15T17:50:39.955Z,5.13
2023-03-15T17:53:14.061Z,5.47
2023-03-15T17:55:41.887Z,8.50
2023-03-15T17:58:20.222Z,5.23
2023-03-15T18:00:49.085Z,7.30
2023-03-15T18:03:18.069Z,5.73
2023-03-15T18:05:47.354Z,5.50
2023-03-15T18:08:18.252Z,5.70
2023-03-15T18:10:47.066Z,6.73
2023-03-15T18:13:17.556Z,7.53
2023-03-15T18:15:45.476Z,6.73
2023-03-15T18:18:13.374Z,4.97
2023-03-15T18:20:42.095Z,5.40
2023-03-15T18:23:14.110Z,4.47
2023-03-15T18:25:42.302Z,5.00
2023-03-15T18:28:10.391Z,5.30
2023-03-15T18:30:38.150Z,5.07
2023-03-15T18:33:06.132Z,5.80
2023-03-15T18:35:35.573Z,7.23
2023-03-15T18:38:04.055Z,5.03
2023-03-15T18:40:35.217Z,6.43
2023-03-15T18:43:05.277Z,6.00
2023-03-15T18:45:34.952Z,8.03
2023-03-15T18:48:03.426Z,5.73
2023-03-15T18:50:31.820Z,6.00
2023-03-15T18:52:59.633Z,6.73
2023-03-15T18:55:27.829Z,12.80
2023-03-15T18:57:56.982Z,5.77
2023-03-15T19:00:27.344Z,9.87
2023-03-15T19:02:57.101Z,6.33
2023-03-15T19:05:26.033Z,10.20
2023-03-15T19:07:53.850Z,10.27
2023-03-15T19:10:24.051Z,6.87
2023-03-15T19:12:53.213Z,9.53
2023-03-15T19:15:23.899Z,9.27
2023-03-15T19:17:54.375Z,7.87
2023-03-15T19:20:23.020Z,5.93
2023-03-15T19:22:51.242Z,7.33
2023-03-15T19:25:19.664Z,6.77
2023-03-15T19:27:47.702Z,6.87
2023-03-15T19:30:20.894Z,6.77
2023-03-15T19:32:51.598Z,9.03
2023-03-15T19:35:20.978Z,8.17
2023-03-15T19:37:49.743Z,6.70
2023-03-15T19:40:18.439Z,6.87
2023-03-15T19:42:47.119Z,8.47
2023-03-15T19:45:14.879Z,8.77
2023-03-15T19:47:43.160Z,7.33
2023-03-15T19:50:15.483Z,7.30
2023-03-15T19:52:46.696Z,8.63
2023-03-15T19:55:15.564Z,5.43
2023-03-15T19:57:43.777Z,7.77
2023-03-15T20:00:14.211Z,8.33
2023-03-15T20:02:42.900Z,7.10
2023-03-15T20:05:14.919Z,6.90
2023-03-15T20:07:43.573Z,5.17
2023-03-15T20:10:12.954Z,7.87
2023-03-15T20:12:42.347Z,6.10
2023-03-15T20:15:11.855Z,5.10
2023-03-15T20:17:40.835Z,4.93
2023-03-15T20:20:13.118Z,6.43
2023-03-15T20:22:44.065Z,5.40
2023-03-15T20:25:13.588Z,5.33
2023-03-15T20:27:41.849Z,8.67
2023-03-15T20:30:12.640Z,6.50
2023-03-15T20:32:40.658Z,9.03
2023-03-15T20:35:09.792Z,9.33
2023-03-15T20:37:40.305Z,10.33
2023-03-15T20:40:12.640Z,7.63
2023-03-15T20:42:40.429Z,6.40
2023-03-15T20:45:09.918Z,7.40
2023-03-15T20:47:38.764Z,9.60
2023-03-15T20:50:07.155Z,8.70
2023-03-15T20:52:35.305Z,8.50
2023-03-15T20:55:03.592Z,8.27
2023-03-15T20:57:32.702Z,10.60
2023-03-15T21:00:00.577Z,10.70
2023-03-15T21:02:28.372Z,9.50
2023-03-15T21:04:56.218Z,6.87
2023-03-15T21:07:24.027Z,6.77
2023-03-15T21:09:51.787Z,8.50
2023-03-15T21:12:20.015Z,7.47
2023-03-15T21:14:49.122Z,8.40
2023-03-15T21:17:16.860Z,7.23
2023-03-15T21:19:44.623Z,8.87
2023-03-15T21:22:12.816Z,9.87
2023-03-15T21:24:54.477Z,7.00
2023-03-15T21:27:26.084Z,9.13
2023-03-15T21:29:55.589Z,9.63
2023-03-15T21:32:23.419Z,6.63
2023-03-15T21:34:51.176Z,8.47
2023-03-15T21:37:19.240Z,6.97
2023-03-15T21:39:46.920Z,6.83
2023-03-15T21:42:14.740Z,8.90
2023-03-15T21:44:42.715Z,6.20
2023-03-15T21:47:13.992Z,7.50
2023-03-15T21:49:44.585Z,10.57
2023-03-15T21:52:12.449Z,7.77
2023-03-15T21:54:40.194Z,7.50
2023-03-15T21:57:07.948Z,8.03
2023-03-15T21:59:35.965Z,9.90
2023-03-15T22:02:03.684Z,8.80
2023-03-15T22:04:33.963Z,7.90
2023-03-15T22:07:01.829Z,6.67
2023-03-15T22:09:29.521Z,7.23
2023-03-15T22:11:57.267Z,7.60
2023-03-15T22:14:25.026Z,8.90
2023-03-15T22:16:53.095Z,7.00
2023-03-15T22:19:20.970Z,7.70
2023-03-15T22:21:49.994Z,8.07
2023-03-15T22:24:17.701Z,6.03
2023-03-15T22:26:45.475Z,8.20
2023-03-15T22:29:13.217Z,7.33
2023-03-15T22:31:41.019Z,5.20
2023-03-15T22:34:08.792Z,7.13
2023-03-15T22:36:36.520Z,5.47
2023-03-15T22:39:05.872Z,7.83
2023-03-15T22:41:33.805Z,4.53
2023-03-15T22:44:01.564Z,6.37
2023-03-15T22:46:34.891Z,6.40
2023-03-15T22:49:02.970Z,7.27
2023-03-15T22:51:31.010Z,6.77
2023-03-15T22:53:58.692Z,4.93
2023-03-15T22:56:27.800Z,8.63
2023-03-15T22:58:56.023Z,9.13
2023-03-15T23:01:23.840Z,8.77
2023-03-15T23:03:51.591Z,6.83
2023-03-15T23:06:19.890Z,7.63
2023-03-15T23:08:47.630Z,8.10
2023-03-15T23:11:15.439Z,8.20
2023-03-15T23:13:48.257Z,5.53
2023-03-15T23:16:16.302Z,6.40
2023-03-15T23:18:44.888Z,8.00
2023-03-15T23:21:15.637Z,6.47
2023-03-15T23:23:43.803Z,7.20
2023-03-15T23:26:15.246Z,8.93
2023-03-15T23:28:44.360Z,5.83
2023-03-15T23:31:12.140Z,6.57
2023-03-15T23:33:39.882Z,8.10
2023-03-15T23:36:08.793Z,10.30
2023-03-15T23:38:36.520Z,10.17
2023-03-15T23:41:05.001Z,5.80
2023-03-15T23:43:33.804Z,7.83
2023-03-15T23:46:04.792Z,9.63
2023-03-15T23:48:35.249Z,9.27
2023-03-15T23:51:04.009Z,9.00
2023-03-15T23:53:32.297Z,6.30
2023-03-15T23:56:00.185Z,6.03
2023-03-15T23:58:28.809Z,7.07
